Brooklyn, Mississippi
Current Conditions -  °F | °C
As of 1:53 PM on Monday 26 Jan 2015 (Local Time) from KHBG Reporting Station
Clear Clear  
Wind Chill: 57°   Ceiling: Unl
Heat Index: 57°   Visibility: 10mi
Dew Point: 33°   Wind: 12mph
Humidity: 40%   Direction: 320°NW
Pressure: 30.05"   Gusts: NA
Location:  31.06°N, 89.19°W
Report Text: KHBG 261953Z AUTO 32010KT 10SM CLR 14/01 A3005 RMK AO2 SLP176 T01390006
Loading
Personal Weather Stations






























Interactive Weather Map New forecast layout! Learn more

10-Day Weather Forecast

Advertisements
Track Severe Weather on mobile